Time;durP1;ratioP1;P1;durP2;ratioP2;P2;SDS_P1;SDS_P2;PMS_P1;PMS_P2;Temp;Humidity;BMP_temperature;BMP_pressure;BME280_temperature;BME280_humidity;BME280_pressure;Samples;Min_cycle;Max_cycle;Signal;HPM_P1;HPM_P2
2022/07/14 00:01:10;;;;;;;3.27;1.40;;;;;;;24.32;44.00;99030.97;7037859;28;20216;-81
2022/07/14 00:04:33;;;;;;;3.37;1.60;;;;;;;24.38;43.89;99036.16;7037558;28;20232;-80
2022/07/14 00:07:54;;;;;;;2.57;1.60;;;;;;;24.19;44.41;99039.91;7036457;28;20246;-81
2022/07/14 00:11:16;;;;;;;1.50;1.40;;;;;;;24.50;43.52;99033.84;7033592;28;20204;-81
2022/07/14 00:14:37;;;;;;;2.33;1.63;;;;;;;24.01;44.54;99024.84;7035767;28;20705;-80
2022/07/14 00:17:59;;;;;;;1.20;1.20;;;;;;;24.20;44.74;99027.75;7036659;28;20370;-80
2022/07/14 00:21:22;;;;;;;2.17;1.80;;;;;;;24.05;44.89;99014.91;7035962;28;20208;-79
2022/07/14 00:24:44;;;;;;;2.30;1.50;;;;;;;24.03;44.75;99019.91;7035961;28;20217;-79
2022/07/14 00:28:06;;;;;;;1.60;1.50;;;;;;;24.01;45.14;99026.81;7035216;28;20270;-79
2022/07/14 00:31:27;;;;;;;1.80;1.60;;;;;;;24.05;44.80;99001.16;7035746;28;20212;-80
2022/07/14 00:34:49;;;;;;;2.37;1.60;;;;;;;24.04;44.44;99020.72;7033767;28;20227;-80
2022/07/14 00:38:12;;;;;;;2.03;1.83;;;;;;;24.16;44.32;99002.72;7035247;28;20318;-81
2022/07/14 00:41:34;;;;;;;1.90;1.80;;;;;;;24.17;44.07;99009.88;7035987;28;20472;-80
2022/07/14 00:44:55;;;;;;;7.97;1.90;;;;;;;24.19;44.37;99026.94;7035161;28;20238;-80
2022/07/14 00:48:19;;;;;;;2.13;1.60;;;;;;;24.36;43.81;99005.28;7036081;28;20303;-80
2022/07/14 00:51:40;;;;;;;1.50;1.40;;;;;;;24.57;43.43;99006.78;7041294;28;20215;-80
2022/07/14 00:55:04;;;;;;;4.97;1.50;;;;;;;23.38;45.95;99025.78;7044420;28;20243;-80
2022/07/14 00:58:26;;;;;;;4.50;2.20;;;;;;;24.00;44.98;99008.59;7035290;28;20263;-80
2022/07/14 01:01:47;;;;;;;3.57;1.77;;;;;;;24.40;43.72;99022.91;7035162;28;20214;-80
2022/07/14 01:05:09;;;;;;;1.30;1.20;;;;;;;24.41;43.84;99016.28;7034836;28;20215;-80
2022/07/14 01:08:31;;;;;;;3.07;1.83;;;;;;;24.42;43.80;99014.34;7058534;28;20199;-80
2022/07/14 01:11:54;;;;;;;3.63;1.80;;;;;;;24.08;44.87;99017.09;7036071;28;20208;-80
2022/07/14 01:15:17;;;;;;;3.07;1.73;;;;;;;24.07;45.08;99015.44;7006439;28;20367;-80
2022/07/14 01:18:39;;;;;;;1.90;1.60;;;;;;;24.01;44.81;98999.25;7006741;28;20221;-79
2022/07/14 01:22:02;;;;;;;2.40;2.10;;;;;;;23.48;46.55;99013.88;7006445;28;20211;-80
2022/07/14 01:25:24;;;;;;;2.70;1.70;;;;;;;23.54;46.35;99030.06;7008182;28;20313;-81
2022/07/14 01:28:46;;;;;;;3.47;1.40;;;;;;;23.20;46.65;98989.78;7008592;28;20204;-81
2022/07/14 01:32:07;;;;;;;1.77;1.67;;;;;;;23.65;46.95;99020.66;7009665;28;20739;-80
2022/07/14 01:35:29;;;;;;;2.73;1.83;;;;;;;23.34;47.18;99026.59;7013462;28;20231;-80
2022/07/14 01:38:52;;;;;;;2.57;1.67;;;;;;;23.29;47.35;99023.84;7019831;28;20217;-80
2022/07/14 01:42:14;;;;;;;1.93;1.83;;;;;;;23.31;46.86;98983.16;7009125;28;20212;-80
2022/07/14 01:45:36;;;;;;;3.57;2.00;;;;;;;23.45;46.43;99015.28;7008597;28;20245;-80
2022/07/14 01:48:57;;;;;;;2.63;1.90;;;;;;;23.18;46.99;99008.53;7008495;28;20201;-80
2022/07/14 01:52:19;;;;;;;2.50;2.27;;;;;;;22.88;47.62;99003.91;7008329;28;20287;-80
2022/07/14 01:55:43;;;;;;;3.67;1.90;;;;;;;23.14;47.23;98990.88;7009146;28;20235;-80
2022/07/14 01:59:05;;;;;;;3.13;1.97;;;;;;;23.04;47.67;99007.41;7008258;28;20296;-80
2022/07/14 02:02:26;;;;;;;2.10;1.90;;;;;;;22.82;48.50;99018.75;7008159;28;20676;-80
2022/07/14 02:05:48;;;;;;;2.37;2.00;;;;;;;22.99;47.74;98991.78;7008001;28;20317;-80
2022/07/14 02:09:09;;;;;;;2.37;1.57;;;;;;;23.24;47.59;99010.94;7010082;28;20242;-80
2022/07/14 02:12:31;;;;;;;3.20;1.93;;;;;;;23.38;46.82;99016.69;7007502;28;20278;-80
2022/07/14 02:15:55;;;;;;;5.03;1.93;;;;;;;23.28;47.52;99006.53;7006566;28;20217;-80
2022/07/14 02:19:16;;;;;;;2.07;1.90;;;;;;;23.01;47.71;98984.06;7007845;28;20211;-80
2022/07/14 02:22:38;;;;;;;3.10;1.90;;;;;;;22.42;48.97;99009.75;7007897;28;20256;-80
2022/07/14 02:25:59;;;;;;;2.30;2.10;;;;;;;22.19;50.28;99016.59;7008303;28;20225;-80
2022/07/14 02:29:22;;;;;;;2.40;2.20;;;;;;;22.26;50.40;99008.94;7007381;28;20233;-80
2022/07/14 02:32:44;;;;;;;2.10;1.90;;;;;;;22.37;49.84;98985.81;7007822;28;20198;-79
2022/07/14 02:36:06;;;;;;;2.03;1.93;;;;;;;22.09;50.54;99016.63;7007677;28;20590;-79
2022/07/14 02:39:28;;;;;;;3.03;2.00;;;;;;;22.52;49.69;99002.34;7007707;28;20224;-80
2022/07/14 02:42:50;;;;;;;2.80;1.83;;;;;;;22.91;48.15;98997.03;7007609;28;20208;-79
2022/07/14 02:46:13;;;;;;;3.13;2.20;;;;;;;22.58;49.09;99003.13;7008718;28;20218;-79
2022/07/14 02:49:35;;;;;;;5.67;2.07;;;;;;;22.29;49.92;98997.38;7008778;28;20230;-80
2022/07/14 02:52:56;;;;;;;2.20;2.00;;;;;;;21.93;50.84;98981.16;7010216;28;20208;-80
2022/07/14 02:56:18;;;;;;;2.40;2.20;;;;;;;21.75;51.01;98970.72;7014434;28;20266;-81
2022/07/14 02:59:41;;;;;;;3.00;2.10;;;;;;;21.74;51.70;98997.38;7006668;28;20231;-81
2022/07/14 03:03:06;;;;;;;2.20;2.10;;;;;;;21.78;51.58;98990.22;7013129;28;20222;-80
2022/07/14 03:06:27;;;;;;;2.23;2.10;;;;;;;21.63;51.94;98989.34;7034343;28;20346;-81
2022/07/14 03:09:49;;;;;;;2.17;2.07;;;;;;;21.74;51.73;99002.00;7049939;28;20204;-79
2022/07/14 03:13:11;;;;;;;4.30;2.17;;;;;;;21.82;51.25;98985.00;7043743;28;20273;-79
2022/07/14 03:16:32;;;;;;;2.20;2.00;;;;;;;21.73;51.18;98983.91;7036816;28;20872;-81
2022/07/14 03:19:55;;;;;;;2.87;2.13;;;;;;;21.64;51.07;98985.47;7036943;28;20201;-80
2022/07/14 03:23:17;;;;;;;3.23;2.20;;;;;;;21.77;51.03;98985.00;7036884;28;20244;-80
2022/07/14 03:26:39;;;;;;;3.37;2.30;;;;;;;21.79;51.10;98997.38;7036666;28;20202;-79
2022/07/14 03:30:00;;;;;;;2.50;2.10;;;;;;;21.52;51.19;98962.97;7036271;28;20203;-81
2022/07/14 03:33:22;;;;;;;2.43;2.20;;;;;;;21.88;50.53;98990.22;7036010;28;20358;-80
2022/07/14 03:36:45;;;;;;;2.30;2.10;;;;;;;21.82;49.81;98955.63;7039873;28;20582;-80
2022/07/14 03:40:08;;;;;;;2.63;2.17;;;;;;;21.86;50.41;98983.38;7037220;28;20222;-80
2022/07/14 03:43:30;;;;;;;2.53;2.10;;;;;;;21.99;50.12;98983.66;7032582;28;20221;-80
2022/07/14 03:46:51;;;;;;;3.30;2.10;;;;;;;21.83;50.15;98984.72;7034079;28;20242;-81
2022/07/14 03:50:13;;;;;;;4.30;2.00;;;;;;;22.21;49.42;98986.94;7033176;28;20206;-80
2022/07/14 03:53:36;;;;;;;2.20;2.00;;;;;;;22.00;49.74;98996.28;7033319;28;20229;-80
2022/07/14 03:56:57;;;;;;;2.70;2.27;;;;;;;21.84;50.45;98996.53;7033214;28;20280;-80
2022/07/14 04:00:19;;;;;;;2.73;2.00;;;;;;;22.06;49.95;98997.94;7032401;28;20582;-80
2022/07/14 04:03:41;;;;;;;2.40;2.20;;;;;;;22.44;48.58;98994.66;7023323;28;20250;-79
2022/07/14 04:07:02;;;;;;;2.23;1.67;;;;;;;22.42;48.63;98999.56;7004149;28;20219;-78
2022/07/14 04:10:25;;;;;;;3.10;2.00;;;;;;;21.99;50.42;99000.13;7009369;28;20670;-79
2022/07/14 04:13:47;;;;;;;2.20;2.10;;;;;;;21.96;50.29;98978.69;7037450;28;20223;-79
2022/07/14 04:17:08;;;;;;;4.07;2.30;;;;;;;21.66;51.65;98994.28;7037551;28;20286;-79
2022/07/14 04:20:30;;;;;;;3.40;2.30;;;;;;;21.72;50.93;98960.31;7036568;28;20204;-79
2022/07/14 04:23:52;;;;;;;2.30;2.10;;;;;;;21.90;50.52;98973.50;7037957;28;20217;-79
2022/07/14 04:27:14;;;;;;;2.50;2.30;;;;;;;22.16;50.36;99008.94;7037287;28;20207;-80
2022/07/14 04:30:36;;;;;;;2.27;1.97;;;;;;;22.15;50.16;98999.03;7036551;28;20199;-79
2022/07/14 04:33:58;;;;;;;3.17;2.17;;;;;;;22.47;49.11;98994.09;7038586;28;20228;-79
2022/07/14 04:37:19;;;;;;;3.43;2.47;;;;;;;22.32;49.62;98999.59;7036312;28;20227;-79
2022/07/14 04:40:47;;;;;;;3.27;2.10;;;;;;;22.68;48.90;99012.22;7036363;28;20257;-79
2022/07/14 04:44:11;;;;;;;2.60;2.10;;;;;;;22.59;48.69;99004.81;7029652;28;20215;-79
2022/07/14 04:47:32;;;;;;;7.57;2.50;;;;;;;21.97;50.58;99015.22;7007937;28;20239;-79
2022/07/14 04:54:34;;;;;;;5.13;2.30;;;;;;;22.12;50.96;99004.25;7022735;28;20223;-81
2022/07/14 04:57:56;;;;;;;2.50;2.27;;;;;;;22.43;50.47;98997.69;7036003;28;20305;-79
2022/07/14 05:01:19;;;;;;;3.03;2.17;;;;;;;23.09;48.67;98988.16;7035847;28;20209;-78
2022/07/14 05:04:40;;;;;;;4.13;2.03;;;;;;;23.37;48.13;99006.78;7035477;28;20255;-79
2022/07/14 05:08:02;;;;;;;4.57;2.20;;;;;;;23.51;47.86;99014.13;7035045;28;20233;-78
2022/07/14 05:11:23;;;;;;;2.57;1.97;;;;;;;24.03;46.08;99014.41;7052039;28;20189;-80
2022/07/14 05:14:45;;;;;;;3.53;2.20;;;;;;;24.35;46.07;98995.38;7042099;28;20226;-78
2022/07/14 05:18:08;;;;;;;2.87;2.10;;;;;;;25.36;43.34;98998.72;7035985;28;20232;-79
2022/07/14 05:21:30;;;;;;;5.30;2.17;;;;;;;25.26;43.90;98979.53;7039434;28;20201;-79
2022/07/14 05:24:52;;;;;;;2.53;2.23;;;;;;;25.01;44.10;98982.56;7035346;28;20232;-79
2022/07/14 05:28:13;;;;;;;1.87;1.77;;;;;;;24.70;44.04;98922.53;7036585;28;20215;-79
2022/07/14 05:31:35;;;;;;;3.30;2.20;;;;;;;25.72;43.40;98980.53;7029079;28;20198;-78
2022/07/14 05:34:58;;;;;;;4.90;2.00;;;;;;;26.07;42.80;98990.28;7020005;28;20640;-80
2022/07/14 05:38:20;;;;;;;2.57;2.30;;;;;;;26.18;42.00;98915.16;7013913;28;20700;-78
2022/07/14 05:41:43;;;;;;;4.60;2.00;;;;;;;27.41;38.90;98972.28;7012543;28;20205;-80
2022/07/14 05:45:06;;;;;;;4.60;1.77;;;;;;;27.08;39.52;98981.81;7023983;28;20222;-80
2022/07/14 05:48:27;;;;;;;2.50;1.90;;;;;;;27.22;39.90;98968.81;7010352;28;20662;-81
2022/07/14 05:51:50;;;;;;;6.40;2.37;;;;;;;27.78;39.30;98974.81;7010815;28;20233;-76
2022/07/14 05:55:12;;;;;;;2.43;1.87;;;;;;;27.44;39.76;98983.59;7007327;28;20225;-79
2022/07/14 05:58:33;;;;;;;3.40;2.00;;;;;;;27.27;40.65;98966.78;7007380;28;20227;-79
2022/07/14 06:01:55;;;;;;;3.00;2.13;;;;;;;28.01;38.67;98957.06;7007711;28;20220;-80
2022/07/14 06:05:17;;;;;;;1.70;1.60;;;;;;;28.33;38.13;98954.88;7010011;28;20232;-79
2022/07/14 06:08:40;;;;;;;3.40;1.70;;;;;;;27.87;38.93;98962.66;7010608;28;20200;-79
2022/07/14 06:12:01;;;;;;;3.23;1.87;;;;;;;27.39;39.21;98958.75;7009757;28;20204;-79
2022/07/14 06:15:23;;;;;;;2.67;2.03;;;;;;;28.35;38.06;98935.94;7010081;28;20228;-79
2022/07/14 06:18:44;;;;;;;2.07;1.93;;;;;;;28.71;37.45;98958.06;7016642;28;20367;-81
2022/07/14 06:22:06;;;;;;;4.70;1.90;;;;;;;29.02;37.02;98968.00;7014744;28;20197;-80
2022/07/14 06:25:29;;;;;;;3.00;1.80;;;;;;;29.44;36.23;98947.88;7020011;28;20228;-80
2022/07/14 06:28:51;;;;;;;2.20;1.70;;;;;;;30.52;34.44;98941.03;7030820;28;20336;-80
2022/07/14 06:32:12;;;;;;;7.27;2.27;;;;;;;30.31;34.47;98948.44;7041534;28;20193;-80
2022/07/14 06:35:34;;;;;;;2.97;2.20;;;;;;;30.73;34.93;98950.31;7041339;28;20233;-80
2022/07/14 06:38:56;;;;;;;2.20;1.80;;;;;;;30.75;35.10;98952.75;7034522;28;20220;-80
2022/07/14 06:42:19;;;;;;;2.63;2.00;;;;;;;31.24;33.30;98932.59;7033845;28;20214;-80
2022/07/14 06:45:41;;;;;;;2.10;1.90;;;;;;;30.62;35.33;98937.91;7019262;28;20236;-80
2022/07/14 06:49:02;;;;;;;1.87;1.67;;;;;;;30.66;34.91;98927.75;7007853;28;20252;-80
2022/07/14 06:52:24;;;;;;;4.17;2.07;;;;;;;30.29;36.41;98942.38;7008550;28;20211;-80
2022/07/14 06:55:46;;;;;;;3.73;2.00;;;;;;;30.39;36.05;98936.47;7006792;28;20258;-80
2022/07/14 06:59:08;;;;;;;5.73;1.90;;;;;;;30.60;35.03;98933.81;7011591;28;20228;-80
2022/07/14 07:02:30;;;;;;;3.47;2.00;;;;;;;30.92;36.34;98945.19;7005863;28;20198;-79
2022/07/14 07:09:31;;;;;;;3.77;1.60;;;;;;;32.00;33.72;98936.81;7025310;28;20227;-80
2022/07/14 07:12:53;;;;;;;1.80;1.53;;;;;;;32.49;32.86;98908.75;7048646;28;20212;-82
2022/07/14 07:16:16;;;;;;;5.57;1.80;;;;;;;32.83;31.16;98927.16;7013767;28;20219;-80
2022/07/14 07:19:37;;;;;;;1.80;1.70;;;;;;;33.17;30.47;98895.94;7035336;28;20224;-80
2022/07/14 07:23:03;;;;;;;3.93;1.80;;;;;;;33.36;30.12;98912.97;7050001;28;20219;-82
2022/07/14 07:26:25;;;;;;;3.00;1.47;;;;;;;33.42;29.70;98920.75;7036846;28;20210;-80
2022/07/14 07:29:47;;;;;;;1.60;1.50;;;;;;;33.56;28.62;98892.41;7024037;28;20253;-80
2022/07/14 07:33:10;;;;;;;4.87;1.63;;;;;;;34.15;28.21;98908.22;7021037;28;20260;-80
2022/07/14 07:36:31;;;;;;;2.53;1.47;;;;;;;34.40;28.22;98915.38;7040944;28;20200;-80
2022/07/14 07:39:53;;;;;;;2.70;1.40;;;;;;;34.62;25.13;98913.94;7028545;28;20233;-80
2022/07/14 07:43:15;;;;;;;4.60;1.47;;;;;;;34.95;25.74;98914.47;7025542;28;20236;-80
2022/07/14 07:46:36;;;;;;;1.50;1.40;;;;;;;34.55;26.79;98906.16;7031685;28;20906;-81
2022/07/14 07:49:59;;;;;;;1.60;1.40;;;;;;;33.58;27.57;98898.47;7032463;28;20186;-81
2022/07/14 07:53:21;;;;;;;3.23;1.77;;;;;;;34.03;27.26;98893.47;7044590;28;20246;-80
2022/07/14 07:56:42;;;;;;;5.70;1.60;;;;;;;35.04;25.66;98878.63;7024445;28;20202;-81
2022/07/14 08:00:06;;;;;;;3.23;1.63;;;;;;;35.54;23.99;98885.06;7009543;28;20245;-80
2022/07/14 08:03:27;;;;;;;1.40;1.30;;;;;;;35.88;23.57;98852.53;7012078;28;20221;-80
2022/07/14 08:06:50;;;;;;;2.27;1.63;;;;;;;36.08;22.43;98871.03;7012552;28;20205;-81
2022/07/14 08:10:12;;;;;;;2.17;1.40;;;;;;;36.48;22.07;98877.06;7026338;28;20202;-80
2022/07/14 08:13:33;;;;;;;1.80;1.63;;;;;;;35.17;22.64;98852.94;7019947;28;20268;-80
2022/07/14 08:16:55;;;;;;;1.40;1.30;;;;;;;35.63;22.54;98868.03;7011016;28;20229;-80
2022/07/14 08:20:17;;;;;;;3.20;1.50;;;;;;;37.02;22.32;98857.94;7008991;28;20242;-81
2022/07/14 08:23:41;;;;;;;2.50;1.50;;;;;;;36.20;21.44;98856.84;7034015;28;20375;-80
2022/07/14 08:27:03;;;;;;;2.30;1.27;;;;;;;35.35;23.29;98858.97;7037757;28;20239;-80
2022/07/14 08:30:25;;;;;;;4.07;1.80;;;;;;;36.50;22.34;98855.81;7037513;28;20296;-81
2022/07/14 08:33:46;;;;;;;2.30;1.57;;;;;;;36.26;22.62;98847.72;7023594;28;20221;-80
2022/07/14 08:37:08;;;;;;;1.90;1.40;;;;;;;35.56;23.21;98839.81;7038563;28;20666;-80
2022/07/14 08:40:31;;;;;;;3.07;1.87;;;;;;;36.11;22.46;98837.41;7018694;28;20249;-81
2022/07/14 08:43:53;;;;;;;1.40;1.30;;;;;;;36.46;21.80;98807.19;7021399;28;20225;-80
2022/07/14 08:47:14;;;;;;;2.00;1.50;;;;;;;37.24;21.75;98806.47;7024419;28;20208;-80
2022/07/14 08:50:37;;;;;;;3.57;1.53;;;;;;;37.00;22.63;98801.25;7012754;28;20208;-81
2022/07/14 08:53:59;;;;;;;4.23;1.60;;;;;;;37.62;21.34;98828.75;7007475;28;20218;-81
2022/07/14 08:57:22;;;;;;;2.03;1.50;;;;;;;37.95;21.27;98800.63;7006616;28;20221;-81
2022/07/14 09:00:44;;;;;;;3.63;1.70;;;;;;;38.00;21.63;98798.28;7007620;28;20208;-81
2022/07/14 09:04:06;;;;;;;5.40;1.60;;;;;;;38.40;20.19;98811.56;7008604;28;20229;-80
2022/07/14 09:07:32;;;;;;;4.13;1.90;;;;;;;38.73;20.18;98817.16;7007551;28;20198;-81
2022/07/14 09:10:54;;;;;;;2.70;1.60;;;;;;;37.46;21.23;98775.44;7032453;28;20206;-81
2022/07/14 09:14:17;;;;;;;4.57;2.10;;;;;;;37.42;20.21;98791.47;7054210;28;20485;-82
2022/07/14 09:17:50;;;;;;;5.20;2.03;;;;;;;37.50;20.19;98795.19;7045059;28;20205;-80
2022/07/14 09:21:19;;;;;;;3.07;1.60;;;;;;;37.74;20.61;98795.53;7039657;28;20248;-81
2022/07/14 09:24:41;;;;;;;3.73;1.60;;;;;;;38.45;19.29;98809.25;7036364;28;20227;-81
2022/07/14 09:28:03;;;;;;;4.40;1.67;;;;;;;37.95;20.08;98794.97;7036601;28;20785;-81
2022/07/14 09:31:28;;;;;;;3.10;1.70;;;;;;;37.49;21.90;98802.03;7011063;28;20555;-81
2022/07/14 09:34:59;;;;;;;4.30;1.70;;;;;;;38.02;21.42;98783.81;7013809;28;20218;-81
2022/07/14 09:38:23;;;;;;;3.37;1.90;;;;;;;38.15;21.02;98757.81;7029261;28;20245;-83
2022/07/14 09:41:50;;;;;;;2.53;1.70;;;;;;;37.43;20.55;98795.09;7036915;28;20978;-80
2022/07/14 09:45:14;;;;;;;4.70;1.77;;;;;;;36.43;22.46;98779.03;7023197;28;20229;-80
2022/07/14 09:48:36;;;;;;;3.87;1.63;;;;;;;37.16;20.93;98782.25;7008992;28;20206;-81
2022/07/14 09:52:00;;;;;;;1.63;1.50;;;;;;;37.88;21.10;98781.63;7007330;28;20212;-80
2022/07/14 09:55:21;;;;;;;2.37;1.70;;;;;;;37.81;21.01;98772.28;7007373;28;20223;-80
2022/07/14 09:58:51;;;;;;;4.47;1.87;;;;;;;38.18;19.81;98765.47;7010983;28;20225;-79
2022/07/14 10:02:17;;;;;;;1.97;1.80;;;;;;;38.40;20.78;98766.47;7013642;28;20641;-79
2022/07/14 10:05:41;;;;;;;3.17;1.87;;;;;;;37.95;19.97;98750.72;7012245;28;20300;-79
2022/07/14 10:09:03;;;;;;;2.67;1.83;;;;;;;37.69;19.91;98762.09;7029878;28;20229;-79
2022/07/14 10:12:26;;;;;;;4.77;1.60;;;;;;;37.59;20.33;98742.25;7030312;28;20204;-80
2022/07/14 10:15:47;;;;;;;2.40;1.50;;;;;;;37.88;19.55;98752.66;7030103;28;20222;-79
2022/07/14 10:19:09;;;;;;;1.90;1.70;;;;;;;38.22;19.28;98751.44;7010853;28;20232;-79
2022/07/14 10:22:32;;;;;;;1.73;1.60;;;;;;;39.17;18.07;98745.38;7011320;28;20228;-80
2022/07/14 10:25:56;;;;;;;1.60;1.50;;;;;;;39.42;17.78;98732.22;7028398;28;20299;-79
2022/07/14 10:29:18;;;;;;;3.65;1.65;;;;;;;40.64;16.45;98728.06;7020826;28;20250;-79
2022/07/14 10:32:47;;;;;;;1.80;1.70;;;;;;;40.30;16.48;98716.34;7029621;28;20208;-79
2022/07/14 10:36:15;;;;;;;3.70;1.73;;;;;;;40.09;16.03;98716.28;7004575;28;20225;-79
2022/07/14 10:39:42;;;;;;;2.67;1.50;;;;;;;38.62;17.65;98697.84;7005590;28;20241;-82
2022/07/14 10:43:06;;;;;;;1.70;1.60;;;;;;;38.81;18.29;98704.03;7014986;28;20202;-80
2022/07/14 10:46:36;;;;;;;3.63;1.55;;;;;;;39.95;17.55;98692.88;7032072;28;20208;-81
2022/07/14 10:50:02;;;;;;;4.00;1.70;;;;;;;39.05;18.03;98669.53;7028187;28;20202;-81
2022/07/14 10:53:24;;;;;;;3.33;1.60;;;;;;;40.25;17.48;98671.53;7029427;28;20221;-80
2022/07/14 10:56:47;;;;;;;1.58;1.48;;;;;;;40.63;16.98;98667.06;7021599;28;20204;-80
2022/07/14 11:00:47;;;;;;;5.22;1.70;;;;;;;39.74;17.52;98662.59;7017566;28;20249;-80
2022/07/14 11:04:09;;;;;;;3.88;1.40;;;;;;;38.94;17.86;98653.75;7023741;28;20224;-81
2022/07/14 11:07:38;;;;;;;4.63;1.40;;;;;;;38.57;18.78;98653.13;7025973;28;20685;-80
2022/07/14 11:11:01;;;;;;;3.75;1.70;;;;;;;39.67;17.53;98668.16;7030250;28;20334;-80
2022/07/14 11:14:26;;;;;;;1.88;1.70;;;;;;;40.10;14.56;98652.94;7013329;28;20287;-79
2022/07/14 11:17:47;;;;;;;2.35;1.20;;;;;;;40.03;14.42;98635.16;7029211;28;20194;-80
2022/07/14 11:21:14;;;;;;;2.08;1.50;;;;;;;39.75;14.69;98633.13;7014633;28;20224;-81
2022/07/14 11:24:36;;;;;;;3.00;1.60;;;;;;;39.51;14.31;98611.28;7008323;28;20233;-80
2022/07/14 11:27:58;;;;;;;1.98;1.50;;;;;;;39.06;15.06;98636.50;7009071;28;20208;-80
2022/07/14 11:31:22;;;;;;;4.57;1.50;;;;;;;39.06;14.89;98637.31;7008323;28;20205;-79
2022/07/14 11:38:37;;;;;;;5.80;1.67;;;;;;;39.35;14.84;98621.31;7021887;28;20280;-82
2022/07/14 11:42:06;;;;;;;2.60;1.58;;;;;;;40.57;14.25;98617.81;7011392;28;20186;-81
2022/07/14 11:45:56;;;;;;;3.88;1.50;;;;;;;40.06;13.74;98623.06;7012220;28;20253;-81
2022/07/14 11:49:23;;;;;;;2.22;1.60;;;;;;;40.44;14.12;98617.38;7011934;28;20205;-80
2022/07/14 11:52:44;;;;;;;4.10;1.60;;;;;;;39.19;14.73;98603.91;7012952;28;20193;-82
2022/07/14 11:56:07;;;;;;;3.42;1.60;;;;;;;40.01;14.88;98586.75;7013632;28;20229;-80
2022/07/14 11:59:29;;;;;;;1.50;1.33;;;;;;;40.72;14.37;98603.22;7011693;28;20225;-81
2022/07/14 12:02:52;;;;;;;1.77;1.60;;;;;;;40.50;14.32;98606.50;7011552;28;20206;-81
2022/07/14 12:06:15;;;;;;;5.25;1.65;;;;;;;40.62;13.76;98561.63;7011185;28;20213;-80
2022/07/14 12:09:36;;;;;;;3.20;1.70;;;;;;;40.69;13.93;98574.97;7021545;28;20206;-80
2022/07/14 12:12:59;;;;;;;4.82;1.70;;;;;;;40.28;14.28;98597.25;7037591;28;20201;-80
2022/07/14 12:16:22;;;;;;;4.68;2.00;;;;;;;40.43;14.79;98575.41;7039219;28;20189;-82
2022/07/14 12:19:44;;;;;;;4.20;1.77;;;;;;;40.29;15.53;98575.44;7038420;28;20225;-80
2022/07/14 12:23:07;;;;;;;2.05;1.73;;;;;;;40.19;15.48;98553.66;7036155;28;20201;-81
2022/07/14 12:26:29;;;;;;;9.05;1.67;;;;;;;40.92;15.07;98586.59;7033812;28;20263;-80
2022/07/14 12:29:51;;;;;;;3.97;1.90;;;;;;;39.48;15.60;98566.13;7034521;28;20273;-80
2022/07/14 12:33:14;;;;;;;4.97;1.80;;;;;;;39.62;15.89;98574.59;7038659;28;20578;-80
2022/07/14 12:36:36;;;;;;;6.47;1.75;;;;;;;40.51;15.86;98575.00;7039138;28;20204;-80
2022/07/14 12:39:59;;;;;;;3.22;1.65;;;;;;;40.12;15.79;98573.41;7041080;28;20225;-80
2022/07/14 12:43:22;;;;;;;1.73;1.63;;;;;;;39.68;15.59;98568.16;7046192;28;20267;-80
2022/07/14 12:46:43;;;;;;;4.80;1.77;;;;;;;40.11;15.69;98547.19;7044107;28;20213;-80
2022/07/14 12:50:19;;;;;;;6.85;1.70;;;;;;;40.75;15.16;98545.84;7036283;28;20209;-80
2022/07/14 12:53:56;;;;;;;3.53;1.58;;;;;;;40.38;15.13;98558.88;7037514;28;20215;-81
2022/07/14 12:57:23;;;;;;;4.30;1.88;;;;;;;39.44;15.56;98556.84;7023560;28;20197;-82
2022/07/14 13:00:45;;;;;;;2.65;1.73;;;;;;;39.05;16.36;98556.72;7010165;28;20224;-81
2022/07/14 13:04:06;;;;;;;5.93;2.20;;;;;;;38.82;16.17;98567.47;7012240;28;20228;-81
2022/07/14 13:07:30;;;;;;;2.47;1.73;;;;;;;38.59;16.16;98532.31;7009258;28;20205;-80
2022/07/14 13:10:56;;;;;;;4.40;1.85;;;;;;;38.69;15.95;98554.13;7027668;28;20310;-79
2022/07/14 13:14:19;;;;;;;2.45;1.90;;;;;;;38.67;16.58;98560.16;7036488;28;20278;-80
2022/07/14 13:17:59;;;;;;;4.72;1.42;;;;;;;39.39;15.64;98537.47;7029848;28;20185;-82
2022/07/14 13:21:20;;;;;;;9.53;2.10;;;;;;;38.25;17.12;98554.25;7039989;28;20245;-79
2022/07/14 13:24:45;;;;;;;6.68;2.03;;;;;;;37.98;17.16;98549.25;7036607;28;20286;-80
2022/07/14 13:28:07;;;;;;;3.13;1.40;;;;;;;39.18;16.28;98559.97;7038668;28;20215;-80
2022/07/14 13:31:30;;;;;;;3.90;1.77;;;;;;;38.60;16.57;98554.50;7038584;28;20205;-81
2022/07/14 13:34:51;;;;;;;4.22;1.77;;;;;;;38.07;16.85;98549.72;7038151;28;20240;-81
2022/07/14 13:38:13;;;;;;;3.65;1.60;;;;;;;37.37;17.54;98563.94;7043469;28;20209;-79
2022/07/14 13:41:36;;;;;;;3.93;1.90;;;;;;;37.69;17.45;98533.28;7047582;28;20224;-80
2022/07/14 13:44:57;;;;;;;7.83;1.57;;;;;;;37.31;17.76;98554.22;7038646;28;20235;-81
2022/07/14 13:48:21;;;;;;;5.13;1.40;;;;;;;37.69;17.64;98555.81;7038663;28;20193;-81
2022/07/14 13:55:22;;;;;;;3.27;1.73;;;;;;;37.55;17.10;98555.69;7022298;28;20706;-81
2022/07/14 13:58:44;;;;;;;2.50;1.60;;;;;;;36.66;17.65;98524.16;7010830;28;20236;-82
2022/07/14 14:02:06;;;;;;;1.73;1.40;;;;;;;37.10;17.92;98548.38;7009818;28;20213;-81
2022/07/14 14:05:30;;;;;;;3.23;1.77;;;;;;;37.72;17.81;98547.41;7010154;28;20233;-81
2022/07/14 14:08:51;;;;;;;2.97;1.70;;;;;;;37.44;17.65;98532.25;7013599;28;20205;-81
2022/07/14 14:12:15;;;;;;;1.73;1.63;;;;;;;37.64;16.97;98537.28;7036578;28;20205;-82
2022/07/14 14:15:37;;;;;;;13.37;2.37;;;;;;;37.42;17.80;98532.63;7036763;28;20227;-81
2022/07/14 14:18:59;;;;;;;2.83;1.27;;;;;;;38.13;17.41;98517.19;7036403;28;20225;-82
2022/07/14 14:22:22;;;;;;;4.87;2.00;;;;;;;38.16;17.82;98517.19;7037220;28;20205;-81
2022/07/14 14:25:43;;;;;;;2.40;1.70;;;;;;;38.02;17.31;98516.28;7038002;28;20221;-81
2022/07/14 14:29:05;;;;;;;2.83;1.70;;;;;;;38.18;17.11;98503.50;7036663;28;20573;-81
2022/07/14 14:32:27;;;;;;;2.30;1.53;;;;;;;37.81;17.22;98508.47;7029140;28;20194;-81
2022/07/14 14:35:48;;;;;;;3.17;1.67;;;;;;;37.25;17.50;98509.97;7022476;28;20229;-80
2022/07/14 14:39:11;;;;;;;10.70;2.23;;;;;;;37.05;17.83;98520.59;7020133;28;20221;-82
2022/07/14 14:42:33;;;;;;;4.27;1.80;;;;;;;37.50;18.10;98513.81;7026252;28;20213;-82
2022/07/14 14:45:55;;;;;;;3.20;1.57;;;;;;;37.76;17.49;98505.19;7029842;28;20224;-81
2022/07/14 14:49:16;;;;;;;4.00;2.03;;;;;;;37.85;17.57;98498.03;7036822;28;20296;-82
2022/07/14 14:52:38;;;;;;;7.13;1.80;;;;;;;37.74;17.81;98497.16;7037882;28;20228;-82
2022/07/14 14:56:01;;;;;;;4.03;1.80;;;;;;;37.27;17.77;98491.50;7037707;28;20282;-82
2022/07/14 14:59:23;;;;;;;3.53;1.77;;;;;;;37.66;18.04;98475.00;7037919;28;20234;-82
2022/07/14 15:02:45;;;;;;;2.42;1.45;;;;;;;37.81;18.03;98479.50;7036874;28;20215;-82
2022/07/14 15:06:07;;;;;;;6.07;1.77;;;;;;;38.04;17.82;98452.75;7037259;28;20263;-82
2022/07/14 15:09:28;;;;;;;6.20;1.80;;;;;;;37.70;17.81;98462.56;7037219;28;20216;-82
2022/07/14 15:12:51;;;;;;;3.53;1.57;;;;;;;37.44;17.88;98428.16;7037502;28;20204;-82
2022/07/14 15:16:13;;;;;;;5.30;1.80;;;;;;;37.47;18.49;98452.69;7037673;28;20193;-82
2022/07/14 15:19:34;;;;;;;4.95;1.85;;;;;;;37.66;18.02;98444.03;7037054;28;20228;-81
2022/07/14 15:22:56;;;;;;;4.03;1.80;;;;;;;37.81;18.19;98440.91;7049986;28;20223;-80
2022/07/14 15:26:17;;;;;;;3.33;1.70;;;;;;;36.80;18.85;98448.41;7042497;28;20258;-82
2022/07/14 15:29:40;;;;;;;4.60;1.83;;;;;;;37.44;18.61;98430.97;7037683;28;20201;-82
2022/07/14 15:33:02;;;;;;;4.50;2.07;;;;;;;37.18;19.58;98433.94;7037370;28;20284;-81
2022/07/14 15:36:31;;;;;;;9.00;1.70;;;;;;;36.92;20.16;98440.53;7037373;28;20622;-81
2022/07/14 15:43:32;;;;;;;2.30;2.10;;;;;;;36.31;21.72;98451.41;7044963;28;20216;-82
2022/07/14 15:46:55;;;;;;;8.37;2.27;;;;;;;36.29;21.92;98439.78;7038813;28;20269;-80
2022/07/14 15:50:17;;;;;;;4.43;2.17;;;;;;;36.11;22.51;98433.09;7037623;28;20201;-82
2022/07/14 15:53:39;;;;;;;7.80;2.30;;;;;;;36.08;22.37;98449.91;7038595;28;20254;-82
2022/07/14 15:57:00;;;;;;;6.27;2.10;;;;;;;36.68;22.01;98449.50;7037976;28;20247;-82
2022/07/14 16:00:22;;;;;;;3.33;2.20;;;;;;;36.92;22.60;98440.53;7036993;28;20225;-82
2022/07/14 16:03:45;;;;;;;4.27;1.93;;;;;;;37.12;22.19;98430.69;7037461;28;20225;-81
2022/07/14 16:07:17;;;;;;;2.20;2.00;;;;;;;36.17;23.08;98375.44;7041424;28;20197;-82
2022/07/14 16:10:39;;;;;;;4.77;2.07;;;;;;;35.85;23.59;98433.13;7042292;28;20204;-82
2022/07/14 16:14:01;;;;;;;7.47;2.23;;;;;;;35.85;23.86;98446.34;7041471;28;20224;-82